KMGY/MGY METAR and TAF weather

Enter ICAO airport designator
Station Type Date Time Source
KMGY METAR 2020/08/10 18:53 UTC NOAA

KMGY 101853Z AUTO 19009KT 10SM CLR 28/22 A3002 RMK AO2 SLP157 T02830217 TSNO


Station Type Date Time Source
KMGY Decoded METAR 2020/08/10 18:53 UTC NOAA

DAYTON WRIGHT BROTHERS AIRPORT , OH, United States (KMGY) 39-36N 84-14W 289M
Aug 10, 2020 - 02:53 PM EDT / 2020.08.10 1853 UTC
Wind: from the S (190 degrees) at 10 MPH (9 KT):0
Visibility: 10 mile(s):0
Sky conditions: clear
Temperature: 82.9 F (28.3 C)
Dew Point: 71.1 F (21.7 C)
Relative Humidity: 67%
Pressure (altimeter): 30.02 in. Hg (1016 hPa)
ob: KMGY 101853Z AUTO 19009KT 10SM CLR 28/22 A3002 RMK AO2 SLP157 T02830217 TSNO
cycle: 19

Station Type Date Time Source
KMGY TAF UTC NOAA

Error!

Example: see airport list